Time;durP1;ratioP1;P1;durP2;ratioP2;P2;SDS_P1;SDS_P2;PMS_P1;PMS_P2;Temp;Humidity;BMP_temperature;BMP_pressure;BME280_temperature;BME280_humidity;BME280_pressure;Samples;Min_cycle;Max_cycle;Signal;HPM_P1;HPM_P2
2023/11/06 00:01:57;;;;;;;1.00;0.90;;;;;;;17.43;56.55;95948.09;103589;1280;72724;-37
2023/11/06 00:04:23;;;;;;;0.90;0.90;;;;;;;17.44;56.40;95948.41;103838;1282;62118;-37
2023/11/06 00:06:51;;;;;;;0.90;0.80;;;;;;;17.44;56.52;95955.20;103744;1280;62181;-39
2023/11/06 00:09:18;;;;;;;0.80;0.80;;;;;;;17.43;56.51;95956.13;103612;1282;75413;-38
2023/11/06 00:11:45;;;;;;;1.10;1.00;;;;;;;17.43;56.58;95960.99;103547;1282;65866;-38
2023/11/06 00:14:11;;;;;;;0.80;0.80;;;;;;;17.42;56.61;95958.14;103487;1280;72437;-38
2023/11/06 00:16:38;;;;;;;1.00;0.90;;;;;;;17.42;56.56;95958.83;103660;1283;62100;-37
2023/11/06 00:19:05;;;;;;;0.80;0.80;;;;;;;17.43;56.62;95960.84;103854;1280;62149;-38
2023/11/06 00:21:32;;;;;;;1.00;0.80;;;;;;;17.43;56.54;95963.77;103467;1282;75350;-38
2023/11/06 00:23:58;;;;;;;0.80;0.80;;;;;;;17.42;56.50;95968.81;103805;1280;66323;-38
2023/11/06 00:26:26;;;;;;;1.20;0.90;;;;;;;17.41;56.55;95974.91;103861;1283;72515;-38
2023/11/06 00:28:53;;;;;;;1.00;0.80;;;;;;;17.41;56.47;95973.83;103863;1283;62123;-38
2023/11/06 00:31:21;;;;;;;1.20;1.00;;;;;;;17.41;56.58;95977.92;103842;1280;62143;-38
2023/11/06 00:33:52;;;;;;;0.90;0.90;;;;;;;17.41;56.50;95981.79;103853;1280;75262;-38
2023/11/06 00:36:20;;;;;;;1.50;0.90;;;;;;;17.41;56.49;95979.63;103522;1287;66172;-38
2023/11/06 00:38:47;;;;;;;1.00;1.00;;;;;;;17.40;56.62;95981.86;103691;1280;72639;-38
2023/11/06 00:41:15;;;;;;;1.70;0.80;;;;;;;17.41;56.49;95981.26;103799;1283;62111;-38
2023/11/06 00:43:42;;;;;;;0.60;0.60;;;;;;;17.41;56.52;95985.03;103464;1281;62043;-38
2023/11/06 00:46:10;;;;;;;0.80;0.80;;;;;;;17.41;56.52;95983.48;103476;1282;75353;-38
2023/11/06 00:48:37;;;;;;;0.60;0.60;;;;;;;17.40;56.57;95983.04;103483;1283;65922;-38
2023/11/06 00:51:04;;;;;;;0.90;0.90;;;;;;;17.40;56.51;95983.19;103475;1281;71437;-43
2023/11/06 00:53:30;;;;;;;3.00;0.90;;;;;;;17.40;56.58;95986.11;103473;1280;62085;-38
2023/11/06 00:55:58;;;;;;;0.80;0.70;;;;;;;17.40;56.52;95989.06;103942;1283;62195;-37
2023/11/06 00:58:24;;;;;;;0.80;0.80;;;;;;;17.40;56.55;95991.45;104681;1282;75427;-37
2023/11/06 01:00:51;;;;;;;1.20;1.00;;;;;;;17.40;56.58;95995.86;103707;1281;66390;-38
2023/11/06 01:03:18;;;;;;;1.10;1.00;;;;;;;17.41;56.62;95996.86;103463;1280;72619;-39
2023/11/06 01:05:45;;;;;;;0.80;0.80;;;;;;;17.40;56.59;95994.02;103862;1284;62097;-37
2023/11/06 01:08:12;;;;;;;1.10;1.00;;;;;;;17.40;56.52;95995.47;103796;1281;62098;-37
2023/11/06 01:10:38;;;;;;;0.80;0.80;;;;;;;17.40;56.53;95994.24;103486;1285;75237;-37
2023/11/06 01:13:05;;;;;;;0.90;0.90;;;;;;;17.41;56.53;95997.80;103783;1280;66148;-37
2023/11/06 01:15:32;;;;;;;0.90;0.80;;;;;;;17.41;56.55;95996.09;103831;1281;72620;-37
2023/11/06 01:17:59;;;;;;;0.90;0.90;;;;;;;17.41;56.47;96000.96;103874;1282;62095;-37
2023/11/06 01:20:26;;;;;;;1.70;1.20;;;;;;;17.40;56.55;95999.73;104162;1280;62145;-37
2023/11/06 01:22:52;;;;;;;0.90;0.80;;;;;;;17.40;56.47;96004.22;103615;1282;75331;-37
2023/11/06 01:25:19;;;;;;;0.70;0.70;;;;;;;17.40;56.52;96004.77;103659;1282;65043;-37
2023/11/06 01:27:46;;;;;;;0.80;0.80;;;;;;;17.40;56.53;96003.36;103592;1281;72624;-37
2023/11/06 01:30:13;;;;;;;0.80;0.80;;;;;;;17.39;56.58;96011.17;103551;1282;62178;-37
2023/11/06 01:32:39;;;;;;;1.00;0.90;;;;;;;17.40;56.54;96013.27;103434;1285;63906;-37
2023/11/06 01:35:07;;;;;;;0.80;0.70;;;;;;;17.40;56.50;96011.64;103686;1282;75274;-37
2023/11/06 01:37:34;;;;;;;0.70;0.70;;;;;;;17.39;56.53;96018.98;103900;1280;66198;-37
2023/11/06 01:40:00;;;;;;;1.00;0.90;;;;;;;17.39;56.51;96023.30;103679;1284;72368;-37
2023/11/06 01:42:27;;;;;;;0.90;0.70;;;;;;;17.39;56.55;96025.54;103456;1283;62039;-37
2023/11/06 01:44:54;;;;;;;0.90;0.70;;;;;;;17.39;56.51;96028.71;103488;1280;62120;-37
2023/11/06 01:47:20;;;;;;;0.90;0.80;;;;;;;17.39;56.51;96028.33;103471;1283;75338;-37
2023/11/06 01:49:47;;;;;;;2.30;0.80;;;;;;;17.39;56.47;96027.17;103484;1282;66292;-37
2023/11/06 01:52:17;;;;;;;0.70;0.70;;;;;;;17.39;56.47;96025.08;103445;1280;72461;-37
2023/11/06 01:54:44;;;;;;;0.90;0.70;;;;;;;17.39;56.52;96029.41;103468;1286;62146;-37
2023/11/06 01:57:11;;;;;;;0.80;0.80;;;;;;;17.38;56.52;96030.88;103628;1282;62203;-37
2023/11/06 01:59:38;;;;;;;1.00;0.90;;;;;;;17.38;56.51;96033.11;103349;1284;75985;-37
2023/11/06 02:02:05;;;;;;;1.30;1.00;;;;;;;17.38;56.55;96038.29;103382;1295;65264;-37
2023/11/06 02:04:32;;;;;;;0.70;0.70;;;;;;;17.38;56.60;96046.03;103728;1279;72504;-38
2023/11/06 02:06:59;;;;;;;0.70;0.60;;;;;;;17.38;56.47;96051.59;103793;1280;62041;-38
2023/11/06 02:09:28;;;;;;;1.30;0.90;;;;;;;17.37;56.54;96056.09;103827;1282;62132;-38
2023/11/06 02:11:58;;;;;;;1.10;1.00;;;;;;;17.38;56.48;96058.87;103863;1282;75498;-38
2023/11/06 02:14:24;;;;;;;0.70;0.70;;;;;;;17.37;56.57;96054.84;103646;1283;66057;-38
2023/11/06 02:16:52;;;;;;;0.90;0.80;;;;;;;17.37;56.58;96059.33;103552;1283;72526;-38
2023/11/06 02:19:20;;;;;;;0.90;0.70;;;;;;;17.37;56.59;96061.48;103321;1286;62112;-38
2023/11/06 02:21:50;;;;;;;0.90;0.70;;;;;;;17.37;56.53;96063.88;103533;1282;62145;-38
2023/11/06 02:24:25;;;;;;;1.30;0.80;;;;;;;17.37;56.56;96078.73;103442;1283;75157;-38
2023/11/06 02:26:55;;;;;;;0.70;0.70;;;;;;;17.36;56.55;96077.80;103581;1280;65883;-38
2023/11/06 02:29:22;;;;;;;0.80;0.70;;;;;;;17.36;56.53;96086.99;103428;1282;72602;-38
2023/11/06 02:31:48;;;;;;;0.70;0.70;;;;;;;17.36;56.54;96092.41;103659;1293;62044;-38
2023/11/06 02:34:15;;;;;;;1.10;0.80;;;;;;;17.36;56.57;96095.58;103608;1282;62178;-38
2023/11/06 02:36:41;;;;;;;1.50;0.90;;;;;;;17.36;56.53;96104.70;103678;1285;75276;-38
2023/11/06 02:39:09;;;;;;;1.10;0.80;;;;;;;17.36;56.58;96110.04;103847;1285;66105;-38
2023/11/06 02:41:36;;;;;;;1.00;0.90;;;;;;;17.36;56.54;96114.77;103533;1286;72648;-38
2023/11/06 02:44:03;;;;;;;1.10;0.80;;;;;;;17.35;56.49;96114.84;103585;1283;62009;-38
2023/11/06 02:46:30;;;;;;;0.70;0.70;;;;;;;17.36;56.63;96116.06;103899;1279;62130;-38
2023/11/06 02:48:58;;;;;;;1.40;0.80;;;;;;;17.36;56.52;96123.65;103816;1285;62043;-38
2023/11/06 02:51:25;;;;;;;1.10;1.00;;;;;;;17.35;56.57;96123.02;103871;1282;65841;-38
2023/11/06 02:53:51;;;;;;;0.70;0.70;;;;;;;17.35;56.56;96135.39;103600;1286;71666;-38
2023/11/06 02:56:18;;;;;;;0.80;0.70;;;;;;;17.35;56.63;96137.39;103754;1284;62140;-38
2023/11/06 02:58:45;;;;;;;3.40;0.70;;;;;;;17.35;56.57;96138.48;103589;1280;62193;-38
2023/11/06 03:01:12;;;;;;;0.90;0.80;;;;;;;17.35;56.54;96143.73;103418;1280;62094;-39
2023/11/06 03:03:38;;;;;;;1.00;0.80;;;;;;;17.34;56.56;96146.29;103574;1282;66083;-38
2023/11/06 03:06:06;;;;;;;1.20;0.60;;;;;;;17.35;56.54;96148.92;103594;1285;72751;-38
2023/11/06 03:08:33;;;;;;;0.90;0.90;;;;;;;17.35;56.50;96147.84;103513;1280;62082;-38
2023/11/06 03:10:59;;;;;;;1.30;1.00;;;;;;;17.34;56.54;96149.38;103380;1280;62146;-38
2023/11/06 03:13:26;;;;;;;1.30;0.80;;;;;;;17.35;56.51;96152.41;103457;1282;75462;-37
2023/11/06 03:15:55;;;;;;;0.70;0.70;;;;;;;17.34;56.55;96158.95;103762;1286;62126;-37
2023/11/06 03:18:22;;;;;;;0.70;0.70;;;;;;;17.34;56.57;96160.66;103572;1283;72472;-37
2023/11/06 03:20:50;;;;;;;0.90;0.80;;;;;;;17.34;56.50;96166.63;103530;1280;62159;-37
2023/11/06 03:23:16;;;;;;;1.00;0.80;;;;;;;17.34;56.54;96168.33;103540;1280;62201;-37
2023/11/06 03:25:43;;;;;;;0.80;0.70;;;;;;;17.34;56.60;96172.95;103836;1281;75428;-37
2023/11/06 03:28:09;;;;;;;1.00;0.70;;;;;;;17.34;56.55;96178.67;103519;1285;65917;-37
2023/11/06 03:30:36;;;;;;;1.10;0.80;;;;;;;17.34;56.53;96180.52;103847;1286;73054;-37
2023/11/06 03:33:03;;;;;;;1.00;0.80;;;;;;;17.33;56.51;96187.88;103507;1293;62078;-38
2023/11/06 03:35:29;;;;;;;0.70;0.70;;;;;;;17.33;56.54;96194.45;106137;1279;62076;-38
2023/11/06 03:38:03;;;;;;;1.00;0.70;;;;;;;17.33;56.51;96196.23;104565;1282;74041;-37
2023/11/06 03:40:30;;;;;;;1.30;0.90;;;;;;;17.33;56.54;96201.64;103907;1283;66233;-39
2023/11/06 03:42:56;;;;;;;1.80;0.70;;;;;;;17.33;56.50;96201.25;103879;1280;72409;-43
2023/11/06 03:45:23;;;;;;;0.70;0.70;;;;;;;17.34;56.48;96197.98;104333;1283;62078;-39
2023/11/06 03:47:50;;;;;;;0.60;0.60;;;;;;;17.34;56.49;96200.94;103932;1280;62177;-37
2023/11/06 03:50:16;;;;;;;0.90;0.80;;;;;;;17.34;56.55;96203.73;103611;1281;75459;-37
2023/11/06 03:52:43;;;;;;;1.10;0.80;;;;;;;17.34;56.52;96206.81;103560;1280;66139;-37
2023/11/06 03:55:10;;;;;;;0.80;0.80;;;;;;;17.34;56.53;96208.66;103542;1284;72400;-37
2023/11/06 03:57:36;;;;;;;0.90;0.80;;;;;;;17.35;56.49;96209.45;103504;1284;62015;-37
2023/11/06 04:00:04;;;;;;;0.90;0.70;;;;;;;17.34;56.41;96219.95;103548;1281;62117;-37
2023/11/06 04:02:37;;;;;;;0.80;0.60;;;;;;;17.34;56.44;96223.44;103835;1280;75549;-37
2023/11/06 04:05:05;;;;;;;0.80;0.80;;;;;;;17.33;56.46;96230.08;103745;1284;65903;-37
2023/11/06 04:07:32;;;;;;;1.00;0.90;;;;;;;17.33;56.47;96234.19;103537;1283;72632;-37
2023/11/06 04:09:58;;;;;;;1.30;0.90;;;;;;;17.33;56.47;96233.56;103414;1283;62214;-38
2023/11/06 04:12:25;;;;;;;0.70;0.70;;;;;;;17.33;56.46;96235.96;103429;1282;62152;-37
2023/11/06 04:14:53;;;;;;;0.60;0.50;;;;;;;17.33;56.42;96246.56;103279;1280;62208;-37
2023/11/06 04:17:20;;;;;;;0.90;0.90;;;;;;;17.33;56.46;96249.72;103401;1280;65826;-37
2023/11/06 04:19:47;;;;;;;1.10;0.70;;;;;;;17.32;56.41;96252.96;103503;1280;72398;-37
2023/11/06 04:22:13;;;;;;;1.20;0.60;;;;;;;17.32;56.50;96258.30;103586;1283;62208;-38
2023/11/06 04:24:40;;;;;;;0.80;0.70;;;;;;;17.33;56.41;96266.27;103452;1279;62114;-37
2023/11/06 04:27:08;;;;;;;0.80;0.80;;;;;;;17.32;56.46;96267.34;103439;1283;62159;-39
2023/11/06 04:29:36;;;;;;;0.90;0.80;;;;;;;17.32;56.42;96271.05;103601;1280;66043;-38
2023/11/06 04:32:03;;;;;;;0.50;0.50;;;;;;;17.32;56.43;96276.92;103849;1283;72600;-38
2023/11/06 04:34:30;;;;;;;1.00;0.80;;;;;;;17.32;56.47;96279.40;103839;1285;62110;-38
2023/11/06 04:36:56;;;;;;;1.40;0.80;;;;;;;17.32;56.47;96281.48;103854;1283;62244;-37
2023/11/06 04:39:23;;;;;;;1.00;0.80;;;;;;;17.32;56.45;96288.91;103816;1282;62180;-38
2023/11/06 04:41:49;;;;;;;0.60;0.60;;;;;;;17.32;56.45;96297.40;103870;1283;62134;-37
2023/11/06 04:44:16;;;;;;;1.80;0.90;;;;;;;17.31;56.46;96297.16;103793;1282;62222;-37
2023/11/06 04:46:42;;;;;;;0.70;0.60;;;;;;;17.31;56.46;96296.23;103797;1282;62102;-37
2023/11/06 04:49:09;;;;;;;1.10;0.70;;;;;;;17.31;56.48;96300.79;103500;1280;62177;-37
2023/11/06 04:51:37;;;;;;;0.80;0.70;;;;;;;17.31;56.46;96309.98;103591;1280;75252;-37
2023/11/06 04:54:04;;;;;;;0.80;0.70;;;;;;;17.31;56.49;96312.86;103529;1280;65952;-39
2023/11/06 04:56:31;;;;;;;0.70;0.70;;;;;;;17.30;56.43;96310.69;103463;1280;72454;-38
2023/11/06 04:58:57;;;;;;;0.80;0.80;;;;;;;17.30;56.48;96315.95;103519;1282;62139;-37
2023/11/06 05:01:24;;;;;;;1.00;0.80;;;;;;;17.30;56.40;96313.25;103724;1280;62197;-37
2023/11/06 05:03:50;;;;;;;0.90;0.50;;;;;;;17.30;56.47;96318.89;103703;1283;75533;-37
2023/11/06 05:06:17;;;;;;;0.60;0.60;;;;;;;17.31;56.43;96319.74;103907;1280;66150;-37
2023/11/06 05:08:44;;;;;;;0.70;0.70;;;;;;;17.30;56.58;96319.04;103825;1283;72521;-37
2023/11/06 05:11:12;;;;;;;0.60;0.60;;;;;;;17.31;56.43;96320.83;103918;1290;62133;-37
2023/11/06 05:13:39;;;;;;;0.60;0.60;;;;;;;17.31;56.47;96328.70;103741;1281;62295;-38
2023/11/06 05:16:06;;;;;;;0.90;0.80;;;;;;;17.30;56.45;96336.12;103438;1280;75370;-37
2023/11/06 05:18:33;;;;;;;0.70;0.70;;;;;;;17.30;56.47;96341.23;103510;1281;64864;-37
2023/11/06 05:20:59;;;;;;;0.70;0.70;;;;;;;17.30;56.45;96342.31;103430;1283;72581;-38
2023/11/06 05:23:26;;;;;;;1.10;1.00;;;;;;;17.30;56.44;96350.50;103441;1282;62127;-38
2023/11/06 05:25:53;;;;;;;0.70;0.70;;;;;;;17.30;56.44;96353.20;103580;1280;62203;-38
2023/11/06 05:28:19;;;;;;;0.60;0.60;;;;;;;17.30;56.48;96356.23;103712;1283;75511;-38
2023/11/06 05:30:46;;;;;;;1.50;0.60;;;;;;;17.30;56.53;96363.02;103763;1283;62215;-38
2023/11/06 05:33:13;;;;;;;0.90;0.80;;;;;;;17.29;56.45;96366.34;103479;1280;72368;-39
2023/11/06 05:35:39;;;;;;;0.60;0.60;;;;;;;17.30;56.48;96368.98;103896;1293;62082;-39
2023/11/06 05:38:06;;;;;;;0.70;0.60;;;;;;;17.29;56.42;96375.16;103457;1281;62180;-39
2023/11/06 05:40:32;;;;;;;1.10;0.70;;;;;;;17.29;56.47;96382.88;103738;1282;62203;-39
2023/11/06 05:42:59;;;;;;;1.00;0.70;;;;;;;17.29;56.44;96390.70;103802;1280;62117;-38
2023/11/06 05:45:25;;;;;;;0.70;0.70;;;;;;;17.29;56.36;96395.88;104054;1282;62162;-38
2023/11/06 05:47:52;;;;;;;1.00;0.70;;;;;;;17.29;56.43;96405.77;103444;1283;62034;-38
2023/11/06 05:50:19;;;;;;;0.70;0.70;;;;;;;17.29;56.36;96411.34;104006;1280;62125;-39
2023/11/06 05:52:46;;;;;;;0.60;0.60;;;;;;;17.30;56.48;96416.30;103644;1280;75319;-38
2023/11/06 05:55:13;;;;;;;0.70;0.70;;;;;;;17.30;56.41;96418.38;103472;1283;65027;-38
2023/11/06 05:57:40;;;;;;;0.70;0.70;;;;;;;17.30;56.35;96423.02;103498;1280;72697;-38
2023/11/06 06:00:11;;;;;;;0.70;0.70;;;;;;;17.30;56.44;96419.00;103583;1280;61982;-36
2023/11/06 06:02:40;;;;;;;0.50;0.50;;;;;;;17.29;56.49;96426.41;103586;1282;62101;-38
2023/11/06 06:05:08;;;;;;;0.80;0.70;;;;;;;17.30;56.40;96428.67;103487;1283;75323;-38
2023/11/06 06:07:34;;;;;;;0.80;0.60;;;;;;;17.30;56.38;96425.58;103594;1283;66076;-37
2023/11/06 06:10:05;;;;;;;0.80;0.80;;;;;;;17.30;56.44;96428.73;103539;1280;72649;-39
2023/11/06 06:12:33;;;;;;;0.80;0.70;;;;;;;17.30;56.33;96425.80;103713;1279;62226;-37
2023/11/06 06:15:01;;;;;;;0.40;0.40;;;;;;;17.30;56.37;96435.00;104451;1281;62056;-37
2023/11/06 06:17:29;;;;;;;1.90;1.10;;;;;;;17.30;56.49;96435.94;104367;1282;75225;-41
2023/11/06 06:19:56;;;;;;;2.30;1.20;;;;;;;17.31;56.81;96437.34;104857;1282;66354;-40
2023/11/06 06:22:23;;;;;;;1.60;1.00;;;;;;;17.35;57.50;96440.95;103739;1280;72468;-40
2023/11/06 06:24:50;;;;;;;2.10;1.00;;;;;;;17.39;57.80;96450.58;103693;1282;62100;-41
2023/11/06 06:27:16;;;;;;;1.30;1.00;;;;;;;17.43;58.15;96459.66;103631;1279;62184;-39
2023/11/06 06:29:45;;;;;;;4.00;1.00;;;;;;;17.46;58.24;96463.17;104130;1279;75447;-38
2023/11/06 06:32:14;;;;;;;1.00;0.80;;;;;;;17.49;58.31;96471.16;103648;1282;65666;-38
2023/11/06 06:34:41;;;;;;;0.90;0.90;;;;;;;17.51;58.34;96471.89;103761;1282;72839;-39
2023/11/06 06:37:09;;;;;;;1.00;0.90;;;;;;;17.52;58.28;96481.05;103190;1283;62172;-40
2023/11/06 06:39:35;;;;;;;1.80;0.90;;;;;;;17.53;58.25;96484.15;103575;1282;62064;-39
2023/11/06 06:42:03;;;;;;;1.50;1.00;;;;;;;17.54;58.26;96482.62;103894;1283;75275;-40
2023/11/06 06:44:29;;;;;;;2.10;0.90;;;;;;;17.55;58.18;96483.63;103617;1283;66508;-40
2023/11/06 06:46:58;;;;;;;0.90;0.80;;;;;;;17.56;58.09;96486.44;103397;1282;72649;-42
2023/11/06 06:49:26;;;;;;;2.90;0.80;;;;;;;17.57;58.18;96497.73;103709;1280;62022;-41
2023/11/06 06:51:53;;;;;;;1.50;0.90;;;;;;;17.58;58.13;96502.45;103648;1279;62129;-39
2023/11/06 06:54:53;;;;;;;1.40;0.80;;;;;;;17.58;57.99;96508.42;104502;1280;75799;-40
2023/11/06 06:57:19;;;;;;;1.20;0.90;;;;;;;17.60;57.90;96518.48;103510;1282;66028;-39
2023/11/06 06:59:46;;;;;;;2.30;1.00;;;;;;;17.62;57.89;96521.08;103655;1280;72438;-40
2023/11/06 07:02:13;;;;;;;4.30;1.10;;;;;;;17.65;57.92;96526.21;103487;1282;62137;-40
2023/11/06 07:04:40;;;;;;;3.90;0.90;;;;;;;17.67;57.96;96532.95;103732;1280;62207;-39
2023/11/06 07:07:07;;;;;;;1.90;0.90;;;;;;;17.68;58.11;96542.56;103465;1281;75711;-40
2023/11/06 07:09:34;;;;;;;1.50;0.80;;;;;;;17.69;58.34;96545.35;103533;1282;65719;-39
2023/11/06 07:12:02;;;;;;;1.20;0.80;;;;;;;17.69;58.35;96552.39;103544;1279;72258;-39
2023/11/06 07:14:30;;;;;;;4.30;0.80;;;;;;;17.68;58.31;96553.40;103425;1279;62086;-38
2023/11/06 07:17:03;;;;;;;1.60;0.90;;;;;;;17.69;58.43;96555.80;103540;1280;62200;-40
2023/11/06 07:19:31;;;;;;;1.70;1.00;;;;;;;17.69;58.28;96562.53;103484;1279;75331;-39
2023/11/06 07:21:58;;;;;;;2.60;1.00;;;;;;;17.70;58.28;96567.65;103915;1280;65200;-40
2023/11/06 07:24:27;;;;;;;1.50;0.90;;;;;;;17.71;58.40;96575.25;103546;1280;72494;-40
2023/11/06 07:26:55;;;;;;;2.90;0.90;;;;;;;17.73;58.53;96579.05;105189;1279;62223;-39
2023/11/06 07:29:23;;;;;;;2.20;1.00;;;;;;;17.74;58.46;96582.23;103504;1279;62207;-39
2023/11/06 07:31:52;;;;;;;0.90;0.70;;;;;;;17.75;58.48;96591.92;103461;1282;75359;-38
2023/11/06 07:34:20;;;;;;;1.80;0.90;;;;;;;17.76;58.63;96596.25;103412;1280;66441;-38
2023/11/06 07:36:50;;;;;;;1.60;0.80;;;;;;;17.77;58.66;96594.19;106848;1279;73722;-40
2023/11/06 07:39:20;;;;;;;1.60;0.70;;;;;;;17.78;58.66;96602.71;103682;1280;62202;-38
2023/11/06 07:41:46;;;;;;;1.50;0.80;;;;;;;17.81;58.70;96607.61;107238;1279;59971;-40
2023/11/06 07:44:15;;;;;;;2.00;0.70;;;;;;;17.82;58.68;96603.99;106999;1279;74648;-40
2023/11/06 07:46:42;;;;;;;2.10;0.80;;;;;;;17.84;58.70;96605.26;103603;1283;66547;-39
2023/11/06 07:49:08;;;;;;;2.00;0.80;;;;;;;17.88;58.70;96609.32;105976;1279;73395;-39
2023/11/06 07:51:35;;;;;;;2.50;0.80;;;;;;;17.90;58.59;96608.42;103610;1280;62466;-37
2023/11/06 07:54:03;;;;;;;2.00;0.80;;;;;;;17.93;58.56;96610.61;103453;1280;62159;-36
2023/11/06 07:56:30;;;;;;;3.40;1.00;;;;;;;17.95;58.41;96618.45;103552;1282;75875;-38
2023/11/06 07:58:57;;;;;;;3.00;0.70;;;;;;;17.97;58.45;96623.89;103518;1280;67355;-38
2023/11/06 08:01:24;;;;;;;2.00;0.80;;;;;;;17.99;58.42;96625.23;103433;1282;73404;-39
2023/11/06 08:03:51;;;;;;;1.60;0.80;;;;;;;18.01;58.42;96630.52;103557;1283;62164;-38
2023/11/06 08:06:18;;;;;;;1.10;0.70;;;;;;;18.02;58.38;96632.61;103412;1285;62114;-38
2023/11/06 08:08:45;;;;;;;1.90;0.70;;;;;;;18.04;58.36;96633.02;103450;1282;75322;-38
2023/11/06 08:11:11;;;;;;;1.50;0.90;;;;;;;18.06;58.43;96640.02;103509;1282;64063;-38
2023/11/06 08:13:38;;;;;;;1.30;0.80;;;;;;;18.09;58.32;96647.55;103477;1279;73625;-38
2023/11/06 08:16:05;;;;;;;3.20;0.80;;;;;;;18.09;58.39;96650.89;103368;1285;62097;-39
2023/11/06 08:18:33;;;;;;;1.80;0.70;;;;;;;18.11;58.45;96654.00;103572;1280;62203;-38
2023/11/06 08:21:02;;;;;;;1.50;0.70;;;;;;;18.13;58.36;96663.15;103508;1280;76412;-38
2023/11/06 08:23:30;;;;;;;3.90;0.90;;;;;;;18.15;58.37;96673.48;103606;1282;65663;-37
2023/11/06 08:25:58;;;;;;;0.90;0.60;;;;;;;18.16;58.47;96677.05;103545;1280;72494;-39
2023/11/06 08:28:26;;;;;;;0.50;0.50;;;;;;;18.18;58.44;96675.67;103536;1282;62079;-38
2023/11/06 08:30:53;;;;;;;2.00;1.00;;;;;;;18.20;58.27;96680.81;103566;1279;62085;-40
2023/11/06 08:33:20;;;;;;;3.00;1.60;;;;;;;18.23;58.29;96683.26;103553;1280;74684;-38
2023/11/06 08:35:47;;;;;;;4.30;2.30;;;;;;;18.23;57.49;96691.16;103417;1285;66190;-39
2023/11/06 08:38:14;;;;;;;2.70;1.80;;;;;;;18.20;57.13;96692.59;103528;1280;72650;-37
2023/11/06 08:40:42;;;;;;;3.50;2.20;;;;;;;18.18;57.03;96696.74;103330;1280;62098;-38
2023/11/06 08:43:09;;;;;;;2.30;2.00;;;;;;;18.19;57.13;96702.40;103530;1278;62108;-40
2023/11/06 08:45:36;;;;;;;2.60;1.80;;;;;;;18.21;57.30;96704.66;103728;1279;75103;-38
2023/11/06 08:48:04;;;;;;;5.20;1.90;;;;;;;18.24;57.48;96706.89;103500;1283;66297;-37
2023/11/06 08:50:31;;;;;;;5.80;2.10;;;;;;;18.27;57.42;96711.24;103871;1280;73762;-37
2023/11/06 08:52:58;;;;;;;3.30;1.80;;;;;;;18.29;57.56;96713.20;103137;1280;200325;-38
2023/11/06 08:55:25;;;;;;;2.50;1.80;;;;;;;18.33;57.58;96724.16;104526;1282;62270;-39
2023/11/06 08:57:52;;;;;;;9.00;1.50;;;;;;;18.35;57.67;96720.24;104814;1281;75611;-39
2023/11/06 09:00:18;;;;;;;3.50;1.60;;;;;;;18.38;57.66;96720.60;103635;1282;65091;-37
2023/11/06 09:02:47;;;;;;;4.10;1.80;;;;;;;18.41;57.69;96722.94;103599;1283;72653;-37
2023/11/06 09:05:15;;;;;;;3.90;1.90;;;;;;;18.43;57.77;96720.42;103532;1282;62082;-38
2023/11/06 09:07:42;;;;;;;2.80;1.90;;;;;;;18.47;57.67;96725.44;103549;1280;62108;-38
2023/11/06 09:10:09;;;;;;;2.60;1.80;;;;;;;18.49;57.70;96733.13;103457;1280;76282;-37
2023/11/06 09:12:36;;;;;;;3.20;1.50;;;;;;;18.52;57.71;96733.70;103537;1282;64856;-38
2023/11/06 09:15:04;;;;;;;2.20;1.70;;;;;;;18.54;57.77;96730.63;103450;1280;72530;-38
2023/11/06 09:17:31;;;;;;;1.60;1.30;;;;;;;18.57;57.66;96734.85;103633;1279;62091;-38
2023/11/06 09:19:58;;;;;;;1.90;1.40;;;;;;;18.60;57.70;96732.39;103576;1282;62143;-39
2023/11/06 09:22:26;;;;;;;4.30;1.50;;;;;;;18.62;57.70;96738.06;103590;1279;75085;-39
2023/11/06 09:24:52;;;;;;;4.20;1.80;;;;;;;18.63;57.71;96740.49;103471;1282;67097;-39
2023/11/06 09:27:19;;;;;;;1.90;1.40;;;;;;;18.65;57.68;96740.42;103371;1280;73452;-40
2023/11/06 09:29:46;;;;;;;2.30;1.30;;;;;;;18.67;57.62;96742.54;103487;1283;62127;-37
2023/11/06 09:32:13;;;;;;;3.90;1.60;;;;;;;18.70;57.66;96743.80;103552;1280;62418;-38
2023/11/06 09:34:40;;;;;;;4.80;1.50;;;;;;;18.72;57.77;96745.16;103509;1282;76037;-38
2023/11/06 09:37:07;;;;;;;2.30;1.20;;;;;;;18.75;57.83;96747.58;103336;1282;64922;-38
2023/11/06 09:39:38;;;;;;;3.30;1.40;;;;;;;18.78;57.82;96748.84;103496;1280;73494;-38
2023/11/06 09:42:05;;;;;;;3.10;1.40;;;;;;;18.80;57.90;96751.83;103617;1279;62219;-37
2023/11/06 09:44:32;;;;;;;1.90;1.40;;;;;;;18.82;57.85;96748.59;103477;1280;62146;-38
2023/11/06 09:46:59;;;;;;;2.90;1.20;;;;;;;18.84;57.86;96748.90;103389;1280;76242;-40
2023/11/06 09:49:26;;;;;;;2.10;1.20;;;;;;;18.87;57.85;96748.95;103392;1280;66053;-40
2023/11/06 09:51:55;;;;;;;2.80;1.50;;;;;;;18.88;57.75;96755.61;103234;1280;73703;-39
2023/11/06 09:54:24;;;;;;;3.40;1.40;;;;;;;18.91;57.92;96757.96;103586;1282;62727;-41
2023/11/06 09:56:52;;;;;;;1.50;1.30;;;;;;;18.93;57.92;96755.13;103506;1280;62124;-39
2023/11/06 09:59:19;;;;;;;1.80;1.30;;;;;;;18.95;57.81;96754.05;103340;1285;74492;-40
2023/11/06 10:01:53;;;;;;;2.00;1.20;;;;;;;18.96;57.93;96754.45;103471;1282;66337;-38
2023/11/06 10:04:21;;;;;;;1.20;1.10;;;;;;;18.99;57.78;96754.41;103383;1280;73479;-40
2023/11/06 10:06:49;;;;;;;0.80;0.80;;;;;;;19.00;57.76;96758.84;103531;1283;63224;-36
2023/11/06 10:09:22;;;;;;;1.90;1.10;;;;;;;19.02;57.78;96765.20;103468;1282;62097;-38
2023/11/06 10:11:50;;;;;;;2.40;1.30;;;;;;;19.04;57.86;96767.02;103628;1282;75547;-38
2023/11/06 10:14:17;;;;;;;2.60;0.90;;;;;;;19.06;57.95;96771.44;103518;1282;67672;-41
2023/11/06 10:16:44;;;;;;;1.80;1.10;;;;;;;19.07;57.82;96765.34;103537;1280;73526;-39
2023/11/06 10:19:13;;;;;;;1.80;1.10;;;;;;;19.09;57.74;96774.64;103479;1282;62094;-38
2023/11/06 10:21:40;;;;;;;2.10;1.50;;;;;;;19.11;57.76;96776.06;103635;1280;62085;-39
2023/11/06 10:24:09;;;;;;;1.20;1.10;;;;;;;19.13;57.85;96783.06;103495;1282;76410;-37
2023/11/06 10:26:35;;;;;;;1.90;1.30;;;;;;;19.16;57.93;96792.93;103548;1282;65539;-40
2023/11/06 10:29:13;;;;;;;1.90;1.00;;;;;;;19.19;58.06;96793.02;103404;1279;73331;-37
2023/11/06 10:31:41;;;;;;;1.80;1.20;;;;;;;19.21;58.17;96795.46;103452;1280;62553;-37
2023/11/06 10:34:27;;;;;;;2.20;1.20;;;;;;;19.23;58.34;96797.02;103445;1280;62095;-37
2023/11/06 10:37:13;;;;;;;2.50;1.20;;;;;;;19.26;58.47;96805.50;103397;1283;75316;-37
2023/11/06 10:39:50;;;;;;;4.10;1.10;;;;;;;19.29;58.54;96812.75;103377;1282;67100;-39
2023/11/06 10:42:16;;;;;;;2.40;1.00;;;;;;;19.31;58.62;96812.30;103305;1280;73561;-37
2023/11/06 10:44:43;;;;;;;4.90;1.10;;;;;;;19.33;58.64;96815.89;103211;1285;62216;-38
2023/11/06 10:47:09;;;;;;;2.40;1.00;;;;;;;19.36;58.63;96820.74;103550;1279;62185;-37
2023/11/06 10:49:44;;;;;;;1.70;0.90;;;;;;;19.38;58.75;96823.33;103489;1282;75780;-39
2023/11/06 10:52:10;;;;;;;3.40;0.90;;;;;;;19.40;58.78;96827.99;103547;1279;67493;-39
2023/11/06 10:54:38;;;;;;;2.90;0.80;;;;;;;19.43;58.85;96828.26;103146;1280;73408;-40
2023/11/06 10:57:06;;;;;;;3.30;1.00;;;;;;;19.46;59.07;96831.85;103295;1278;62145;-40
2023/11/06 10:59:32;;;;;;;2.60;1.00;;;;;;;19.48;59.08;96831.41;103288;1279;62486;-40
2023/11/06 11:01:59;;;;;;;6.00;1.30;;;;;;;19.51;59.08;96836.23;103332;1282;77119;-41
2023/11/06 11:04:28;;;;;;;2.20;1.00;;;;;;;19.54;59.14;96838.59;103613;1279;66374;-41
2023/11/06 11:06:55;;;;;;;3.60;1.20;;;;;;;19.56;59.12;96836.44;103521;1280;73767;-41
2023/11/06 11:09:22;;;;;;;2.30;0.80;;;;;;;19.59;59.22;96838.48;105516;1279;62194;-40
2023/11/06 11:11:50;;;;;;;3.30;1.00;;;;;;;19.62;59.16;96841.84;105463;1280;62120;-41
2023/11/06 11:14:17;;;;;;;2.30;1.00;;;;;;;19.65;59.05;96843.95;103502;1280;76467;-41
2023/11/06 11:16:52;;;;;;;4.50;0.90;;;;;;;19.67;59.05;96848.23;103475;1280;67219;-42
2023/11/06 11:19:22;;;;;;;;;;;;;;;19.70;59.03;96849.04;103640;1279;73584;-42
2023/11/06 11:22:00;;;;;;;3.00;1.10;;;;;;;19.71;58.86;96851.30;103646;1282;62114;-41
2023/11/06 11:24:47;;;;;;;2.60;0.90;;;;;;;19.74;58.81;96853.11;103631;1279;62078;-39
2023/11/06 11:27:16;;;;;;;1.50;0.80;;;;;;;19.76;58.80;96860.27;103605;1280;76294;-41